CYLJ

Meadow Lake Airport

Meadow Lake, Saskatchewan, Canada
METAR CYLJ 212000Z 05007KT 15SM OVC009 M07/M09 A2997 RMK SC8 SLP182
Observed Flight Rules
Jan-21 @ 20:00 UTC (21 minutes ago) Instrument Flight Rules
Wind Visibility Clouds
50° at 7 knots 15 miles
  • Overcast at 900' AGL
Temperatures Readings
Current -7°C / 19°F
Dewpoint -9°C / 16°F
Humidity 86%
Altimeter 29.97" Hg
Pressure 1018.2 hPa
Elevation 480
METAR CYLJ 212000Z 05007KT 15SM OVC009 M07/M09 A2997 RMK SC8 SLP182
Observed Flight Rules
Jan-21 @ 20:00 UTC
(21 minutes ago)
IFR
Wind Visibility
50° at 7 knots 15 miles
Clouds
  • Overcast at 900' AGL
Temperature Dewpoint
-7°C / 19°F -9°C / 16°F
Humidity Altimeter Pressure
86% 29.97" Hg 1018.2 hPa